createdAt,value
2023-05-01T00:01:58.742Z,9.45
2023-05-01T00:04:27.801Z,8.38
2023-05-01T00:06:56.732Z,8.77
2023-05-01T00:09:28.463Z,8.00
2023-05-01T00:11:58.930Z,8.13
2023-05-01T00:14:27.950Z,7.47
2023-05-01T00:16:57.028Z,7.63
2023-05-01T00:19:26.083Z,8.27
2023-05-01T00:21:54.953Z,7.95
2023-05-01T00:24:24.250Z,8.00
2023-05-01T00:26:53.512Z,6.97
2023-05-01T00:29:24.046Z,7.38
2023-05-01T00:31:53.383Z,6.85
2023-05-01T00:34:22.431Z,6.80
2023-05-01T00:36:52.448Z,5.95
2023-05-01T00:39:21.341Z,5.95
2023-05-01T00:41:50.310Z,6.30
2023-05-01T00:44:19.218Z,7.13
2023-05-01T00:46:49.795Z,6.53
2023-05-01T00:49:19.182Z,7.20
2023-05-01T00:51:53.293Z,6.50
2023-05-01T00:54:23.198Z,7.90
2023-05-01T00:56:52.402Z,7.85
2023-05-01T00:59:21.677Z,6.70
2023-05-01T01:01:54.408Z,6.80
2023-05-01T01:04:26.153Z,7.38
2023-05-01T01:07:05.589Z,6.95
2023-05-01T01:09:43.742Z,5.57
2023-05-01T01:12:22.089Z,6.70
2023-05-01T01:14:56.754Z,7.30
2023-05-01T01:17:37.912Z,6.82
2023-05-01T01:20:26.796Z,7.53
2023-05-01T01:23:23.183Z,7.15
2023-05-01T01:26:08.537Z,6.05
2023-05-01T01:28:59.969Z,6.57
2023-05-01T01:31:42.249Z,6.35
2023-05-01T01:34:20.161Z,6.90
2023-05-01T01:36:57.167Z,6.20
2023-05-01T01:39:31.528Z,6.97
2023-05-01T01:42:01.738Z,7.25
2023-05-01T01:44:37.869Z,6.25
2023-05-01T01:47:09.487Z,7.18
2023-05-01T01:49:47.128Z,5.63
2023-05-01T01:52:18.309Z,6.85
2023-05-01T01:54:52.916Z,6.32
2023-05-01T01:57:25.198Z,6.95
2023-05-01T01:59:56.686Z,6.50
2023-05-01T02:02:27.803Z,6.22
2023-05-01T02:04:59.759Z,5.70
2023-05-01T02:07:33.061Z,5.85
2023-05-01T02:10:05.597Z,6.53
2023-05-01T02:12:36.768Z,6.45
2023-05-01T02:15:08.242Z,5.72
2023-05-01T02:17:38.650Z,6.95
2023-05-01T02:20:12.481Z,7.07
2023-05-01T02:22:43.159Z,7.00
2023-05-01T02:25:14.011Z,7.10
2023-05-01T02:27:49.030Z,6.55
2023-05-01T02:30:19.945Z,6.32
2023-05-01T02:32:49.031Z,6.63
2023-05-01T02:35:19.823Z,6.13
2023-05-01T02:37:48.927Z,9.18
2023-05-01T02:40:18.115Z,7.68
2023-05-01T02:42:49.420Z,7.75
2023-05-01T02:45:21.851Z,6.72
2023-05-01T02:47:53.891Z,7.63
2023-05-01T02:50:24.926Z,8.15
2023-05-01T02:52:54.447Z,8.13
2023-05-01T02:55:44.733Z,7.75
2023-05-01T02:58:17.506Z,8.18
2023-05-01T03:00:47.179Z,7.07
2023-05-01T03:03:16.769Z,6.45
2023-05-01T03:05:47.768Z,7.47
2023-05-01T03:08:17.363Z,6.72
2023-05-01T03:10:46.267Z,5.80
2023-05-01T03:13:15.180Z,7.43
2023-05-01T03:15:45.273Z,5.72
2023-05-01T03:18:14.281Z,6.50
2023-05-01T03:20:51.895Z,6.30
2023-05-01T03:23:21.297Z,5.45
2023-05-01T03:25:50.263Z,7.15
2023-05-01T03:28:19.147Z,5.78
2023-05-01T03:30:48.068Z,6.03
2023-05-01T03:33:16.972Z,6.28
2023-05-01T03:35:45.997Z,7.63
2023-05-01T03:38:16.509Z,6.40
2023-05-01T03:41:05.439Z,6.00
2023-05-01T03:43:57.464Z,5.60
2023-05-01T03:46:46.583Z,6.15
2023-05-01T03:49:22.823Z,5.28
2023-05-01T03:51:52.589Z,6.80
2023-05-01T03:54:23.120Z,6.90
2023-05-01T03:57:18.229Z,6.22
2023-05-01T03:59:47.408Z,6.35
2023-05-01T04:02:16.452Z,5.07
2023-05-01T04:04:47.345Z,5.90
2023-05-01T04:07:16.663Z,6.15
2023-05-01T04:09:49.482Z,6.68
2023-05-01T04:12:18.587Z,5.95
2023-05-01T04:14:48.991Z,6.07
2023-05-01T04:17:18.051Z,5.70
2023-05-01T04:19:48.034Z,6.45
2023-05-01T04:22:17.529Z,5.72
2023-05-01T04:24:47.918Z,6.18
2023-05-01T04:27:17.840Z,6.60
2023-05-01T04:29:46.996Z,5.22
2023-05-01T04:32:16.633Z,4.90
2023-05-01T04:34:45.705Z,6.65
2023-05-01T04:37:17.893Z,5.43
2023-05-01T04:39:48.663Z,6.15
2023-05-01T04:42:17.622Z,6.95
2023-05-01T04:44:47.457Z,6.77
2023-05-01T04:47:16.837Z,6.10
2023-05-01T04:49:45.930Z,6.87
2023-05-01T04:52:14.897Z,6.00
2023-05-01T04:54:54.424Z,6.17
2023-05-01T04:57:25.937Z,5.57
2023-05-01T04:59:55.267Z,6.13
2023-05-01T05:02:24.547Z,5.03
2023-05-01T05:04:54.622Z,5.87
2023-05-01T05:07:24.160Z,5.33
2023-05-01T05:10:13.223Z,5.07
2023-05-01T05:12:44.595Z,4.60
2023-05-01T05:15:13.907Z,4.70
2023-05-01T05:17:42.806Z,5.63
2023-05-01T05:20:12.295Z,5.27
2023-05-01T05:22:41.504Z,5.97
2023-05-01T05:25:23.455Z,4.82
2023-05-01T05:27:52.640Z,5.05
2023-05-01T05:30:21.867Z,5.00
2023-05-01T05:32:51.121Z,7.75
2023-05-01T05:35:20.481Z,5.38
2023-05-01T05:37:49.911Z,4.78
2023-05-01T05:40:20.333Z,4.72
2023-05-01T05:42:58.977Z,4.60
2023-05-01T05:45:30.336Z,5.88
2023-05-01T05:47:59.995Z,5.15
2023-05-01T05:50:30.756Z,5.93
2023-05-01T05:53:00.572Z,5.18
2023-05-01T05:55:29.907Z,5.45
2023-05-01T05:58:05.939Z,4.75
2023-05-01T06:00:35.153Z,5.40
2023-05-01T06:03:07.390Z,5.22
2023-05-01T06:05:38.002Z,4.78
2023-05-01T06:08:07.458Z,4.07
2023-05-01T06:10:36.796Z,4.75
2023-05-01T06:13:14.098Z,3.92
2023-05-01T06:15:47.256Z,5.75
2023-05-01T06:18:16.746Z,4.30
2023-05-01T06:20:48.180Z,4.30
2023-05-01T06:23:17.154Z,5.07
2023-05-01T06:25:58.997Z,4.67
2023-05-01T06:28:29.444Z,5.10
2023-05-01T06:30:58.456Z,4.27
2023-05-01T06:33:28.664Z,4.07
2023-05-01T06:36:09.947Z,4.77
2023-05-01T06:38:39.010Z,5.27
2023-05-01T06:41:08.375Z,5.30
2023-05-01T06:43:38.786Z,4.23
2023-05-01T06:46:07.736Z,4.70
2023-05-01T06:48:36.747Z,4.53
2023-05-01T06:51:06.204Z,6.17
2023-05-01T06:53:35.395Z,4.90
2023-05-01T06:56:04.504Z,4.43
2023-05-01T06:58:34.458Z,4.70
2023-05-01T07:01:05.239Z,4.83
2023-05-01T07:03:37.394Z,4.87
2023-05-01T07:06:10.618Z,4.80
2023-05-01T07:08:39.559Z,4.30
2023-05-01T07:11:09.315Z,4.30
2023-05-01T07:13:38.414Z,4.13
2023-05-01T07:16:09.479Z,3.73
2023-05-01T07:18:38.776Z,4.67
2023-05-01T07:21:10.222Z,4.93
2023-05-01T07:23:39.177Z,3.80
2023-05-01T07:26:08.229Z,4.50
2023-05-01T07:28:37.180Z,4.10
2023-05-01T07:31:07.591Z,3.97
2023-05-01T07:33:36.940Z,3.47
2023-05-01T07:36:06.449Z,4.73
2023-05-01T07:38:35.409Z,4.10
2023-05-01T07:41:04.309Z,3.97
2023-05-01T07:43:33.503Z,4.00
2023-05-01T07:46:02.926Z,4.10
2023-05-01T07:48:34.056Z,4.43
2023-05-01T07:51:04.921Z,3.83
2023-05-01T07:53:33.986Z,4.83
2023-05-01T07:56:10.198Z,4.00
2023-05-01T07:58:41.100Z,4.00
2023-05-01T08:01:10.421Z,3.70
2023-05-01T08:03:40.730Z,4.07
2023-05-01T08:06:09.843Z,3.40
2023-05-01T08:08:38.781Z,4.83
2023-05-01T08:11:07.897Z,4.57
2023-05-01T08:13:36.891Z,3.87
2023-05-01T08:16:06.484Z,3.80
2023-05-01T08:18:35.357Z,4.47
2023-05-01T08:21:05.858Z,3.97
2023-05-01T08:23:35.024Z,4.50
2023-05-01T08:26:03.917Z,4.00
2023-05-01T08:28:34.225Z,3.60
2023-05-01T08:31:03.831Z,5.17
2023-05-01T08:33:32.857Z,3.73
2023-05-01T08:36:02.177Z,4.23
2023-05-01T08:38:33.572Z,3.70
2023-05-01T08:41:03.522Z,4.13
2023-05-01T08:43:33.943Z,3.73
2023-05-01T08:46:05.034Z,4.97
2023-05-01T08:48:36.794Z,3.53
2023-05-01T08:51:06.720Z,3.70
2023-05-01T08:53:38.408Z,3.23
2023-05-01T08:56:13.688Z,3.80
2023-05-01T08:58:45.380Z,4.00
2023-05-01T09:01:17.255Z,3.20
2023-05-01T09:03:48.119Z,4.23
2023-05-01T09:06:17.373Z,3.70
2023-05-01T09:08:47.721Z,3.27
2023-05-01T09:11:16.740Z,3.80
2023-05-01T09:13:46.103Z,3.80
2023-05-01T09:16:15.295Z,3.90
2023-05-01T09:18:44.504Z,4.17
2023-05-01T09:21:13.648Z,3.33
2023-05-01T09:23:42.854Z,2.90
2023-05-01T09:26:13.142Z,4.40
2023-05-01T09:28:43.190Z,5.73
2023-05-01T09:31:26.579Z,2.90
2023-05-01T09:33:57.050Z,2.77
2023-05-01T09:36:27.210Z,3.80
2023-05-01T09:38:56.546Z,3.07
2023-05-01T09:41:27.392Z,3.80
2023-05-01T09:43:57.539Z,3.17
2023-05-01T09:46:27.688Z,3.80
2023-05-01T09:48:58.990Z,3.90
2023-05-01T09:51:29.442Z,3.27
2023-05-01T09:53:59.763Z,5.63
2023-05-01T09:56:47.192Z,3.73
2023-05-01T09:59:20.415Z,3.10
2023-05-01T10:01:50.943Z,4.30
2023-05-01T10:04:32.537Z,5.43
2023-05-01T10:07:14.437Z,3.60
2023-05-01T10:09:43.554Z,3.17
2023-05-01T10:12:25.856Z,3.60
2023-05-01T10:14:55.608Z,3.77
2023-05-01T10:17:25.030Z,4.43
2023-05-01T10:19:54.194Z,4.00
2023-05-01T10:22:23.602Z,4.10
2023-05-01T10:24:53.040Z,4.33
2023-05-01T10:27:25.761Z,4.00
2023-05-01T10:29:55.922Z,5.10
2023-05-01T10:32:25.208Z,3.93
2023-05-01T10:34:59.714Z,3.60
2023-05-01T10:37:43.509Z,5.00
2023-05-01T10:40:45.466Z,5.10
2023-05-01T10:43:21.205Z,4.70
2023-05-01T10:45:50.472Z,3.70
2023-05-01T10:48:59.423Z,5.47
2023-05-01T10:51:28.912Z,3.90
2023-05-01T10:54:26.938Z,4.47
2023-05-01T10:56:58.708Z,4.20
2023-05-01T10:59:29.476Z,6.40
2023-05-01T11:01:58.571Z,4.07
2023-05-01T11:04:54.541Z,4.27
2023-05-01T11:07:25.484Z,4.17
2023-05-01T11:09:58.811Z,4.73
2023-05-01T11:12:55.324Z,3.97
2023-05-01T11:15:33.937Z,4.10
2023-05-01T11:18:03.926Z,4.37
2023-05-01T11:20:50.003Z,5.20
2023-05-01T11:23:23.627Z,5.03
2023-05-01T11:26:03.696Z,4.10
2023-05-01T11:28:33.619Z,5.20
2023-05-01T11:31:03.986Z,4.43
2023-05-01T11:33:33.116Z,3.97
2023-05-01T11:36:03.378Z,6.03
2023-05-01T11:38:32.426Z,4.13
2023-05-01T11:41:04.531Z,4.80
2023-05-01T11:43:33.841Z,4.20
2023-05-01T11:46:04.334Z,7.50
2023-05-01T11:48:33.947Z,5.37
2023-05-01T11:51:12.973Z,5.00
2023-05-01T11:53:42.181Z,5.87
2023-05-01T11:56:26.746Z,4.53
2023-05-01T11:58:57.818Z,4.10
2023-05-01T12:01:37.479Z,4.30
2023-05-01T12:04:08.219Z,5.27
2023-05-01T12:06:44.031Z,5.70
2023-05-01T12:09:16.942Z,4.60
2023-05-01T12:11:46.720Z,6.63
2023-05-01T12:14:17.284Z,4.93
2023-05-01T12:16:48.388Z,4.43
2023-05-01T12:19:19.650Z,4.70
2023-05-01T12:21:49.458Z,5.40
2023-05-01T12:24:20.110Z,6.10
2023-05-01T12:27:00.778Z,4.63
2023-05-01T12:29:41.626Z,6.03
2023-05-01T12:32:12.058Z,5.40
2023-05-01T12:34:42.198Z,5.60
2023-05-01T12:37:12.170Z,6.47
2023-05-01T12:39:44.667Z,5.17
2023-05-01T12:42:15.458Z,4.83
2023-05-01T12:44:45.259Z,5.20
2023-05-01T12:47:16.167Z,4.40
2023-05-01T12:49:45.797Z,5.03
2023-05-01T12:52:15.215Z,4.90
2023-05-01T12:54:45.804Z,5.47
2023-05-01T12:57:16.255Z,5.00
2023-05-01T12:59:46.982Z,4.77
2023-05-01T13:02:19.266Z,5.60
2023-05-01T13:04:49.646Z,5.47
2023-05-01T13:07:20.262Z,6.00
2023-05-01T13:09:56.375Z,5.50
2023-05-01T13:12:26.351Z,6.30
2023-05-01T13:14:55.934Z,5.60
2023-05-01T13:17:27.685Z,6.17
2023-05-01T13:19:57.327Z,5.43
2023-05-01T13:22:33.768Z,5.77
2023-05-01T13:25:04.336Z,6.87
2023-05-01T13:27:34.247Z,5.43
2023-05-01T13:30:05.273Z,5.00
2023-05-01T13:32:35.768Z,5.37
2023-05-01T13:35:05.534Z,6.60
2023-05-01T13:37:36.341Z,6.13
2023-05-01T13:40:05.828Z,5.13
2023-05-01T13:42:34.827Z,5.83
2023-05-01T13:45:06.505Z,6.00
2023-05-01T13:47:40.787Z,5.97
2023-05-01T13:50:11.953Z,6.30
2023-05-01T13:52:45.688Z,4.73
2023-05-01T13:55:15.424Z,4.70
2023-05-01T13:57:44.715Z,5.83
2023-05-01T14:00:18.965Z,4.83
2023-05-01T14:02:53.161Z,5.50
2023-05-01T14:05:28.344Z,6.37
2023-05-01T14:07:58.583Z,6.73
2023-05-01T14:10:29.634Z,5.87
2023-05-01T14:12:59.244Z,4.90
2023-05-01T14:15:28.931Z,6.30
2023-05-01T14:18:01.206Z,5.97
2023-05-01T14:20:30.509Z,6.10
2023-05-01T14:23:00.558Z,5.87
2023-05-01T14:25:31.727Z,6.33
2023-05-01T14:28:02.937Z,6.33
2023-05-01T14:30:34.569Z,6.17
2023-05-01T14:33:06.410Z,8.70
2023-05-01T14:35:36.311Z,11.43
2023-05-01T14:38:11.152Z,10.40
2023-05-01T14:40:42.921Z,7.70
2023-05-01T14:43:14.366Z,6.40
2023-05-01T14:45:45.532Z,6.87
2023-05-01T14:48:24.555Z,6.10
2023-05-01T14:50:54.923Z,5.73
2023-05-01T14:53:24.324Z,7.07
2023-05-01T14:55:54.202Z,5.80
2023-05-01T14:58:23.264Z,5.90
2023-05-01T15:00:52.455Z,5.80
2023-05-01T15:03:23.496Z,6.23
2023-05-01T15:05:52.598Z,6.07
2023-05-01T15:08:21.578Z,5.83
2023-05-01T15:10:51.513Z,5.33
2023-05-01T15:13:21.841Z,6.83
2023-05-01T15:15:51.656Z,6.40
2023-05-01T15:18:23.303Z,6.33
2023-05-01T15:20:52.996Z,6.37
2023-05-01T15:23:22.056Z,6.80
2023-05-01T15:25:51.141Z,6.23
2023-05-01T15:28:20.127Z,6.80
2023-05-01T15:30:49.534Z,6.90
2023-05-01T15:33:19.209Z,6.67
2023-05-01T15:35:51.272Z,7.10
2023-05-01T15:38:22.061Z,7.40
2023-05-01T15:40:51.338Z,6.80
2023-05-01T15:43:21.950Z,7.93
2023-05-01T15:45:53.138Z,7.13
2023-05-01T15:48:22.498Z,10.60
2023-05-01T15:50:53.037Z,7.33
2023-05-01T15:53:22.466Z,6.20
2023-05-01T15:55:51.699Z,6.50
2023-05-01T15:58:24.266Z,7.20
2023-05-01T16:00:53.543Z,7.70
2023-05-01T16:03:26.788Z,7.90
2023-05-01T16:05:57.880Z,6.40
2023-05-01T16:08:27.527Z,7.30
2023-05-01T16:10:58.212Z,6.70
2023-05-01T16:13:27.292Z,5.70
2023-05-01T16:15:56.456Z,6.60
2023-05-01T16:18:26.438Z,6.40
2023-05-01T16:20:58.235Z,7.73
2023-05-01T16:23:27.783Z,10.33
2023-05-01T16:25:56.935Z,7.60
2023-05-01T16:28:27.192Z,7.30
2023-05-01T16:30:56.401Z,8.90
2023-05-01T16:33:25.572Z,5.90
2023-05-01T16:35:57.440Z,8.20
2023-05-01T16:38:27.662Z,6.50
2023-05-01T16:40:56.692Z,7.37
2023-05-01T16:43:25.702Z,6.07
2023-05-01T16:45:54.924Z,6.20
2023-05-01T16:48:25.772Z,7.33
2023-05-01T16:50:57.191Z,6.70
2023-05-01T16:53:26.105Z,6.03
2023-05-01T16:55:55.148Z,7.00
2023-05-01T16:58:24.210Z,7.67
2023-05-01T17:00:53.255Z,7.13
2023-05-01T17:03:22.231Z,6.47
2023-05-01T17:05:51.137Z,7.10
2023-05-01T17:08:21.546Z,7.70
2023-05-01T17:10:50.565Z,6.83
2023-05-01T17:13:19.827Z,7.13
2023-05-01T17:15:48.906Z,6.63
2023-05-01T17:18:17.928Z,6.23
2023-05-01T17:20:46.919Z,7.53
2023-05-01T17:23:15.930Z,8.43
2023-05-01T17:25:46.404Z,7.03
2023-05-01T17:28:15.344Z,7.20
2023-05-01T17:30:44.672Z,6.80
2023-05-01T17:33:13.635Z,7.00
2023-05-01T17:35:42.584Z,7.50
2023-05-01T17:38:11.509Z,7.10
2023-05-01T17:40:40.370Z,7.43
2023-05-01T17:43:11.879Z,6.80
2023-05-01T17:45:41.144Z,7.13
2023-05-01T17:48:11.070Z,6.90
2023-05-01T17:50:40.348Z,7.93
2023-05-01T17:53:09.721Z,7.27
2023-05-01T17:55:39.090Z,7.20
2023-05-01T17:58:09.512Z,6.40
2023-05-01T18:00:38.687Z,7.60
2023-05-01T18:03:08.946Z,7.63
2023-05-01T18:05:38.295Z,6.70
2023-05-01T18:08:07.829Z,8.50
2023-05-01T18:10:36.788Z,7.07
2023-05-01T18:13:06.198Z,7.20
2023-05-01T18:15:36.472Z,7.57
2023-05-01T18:18:05.588Z,7.60
2023-05-01T18:20:34.530Z,6.43
2023-05-01T18:23:04.037Z,7.37
2023-05-01T18:25:33.928Z,7.50
2023-05-01T18:28:04.190Z,8.77
2023-05-01T18:30:33.476Z,8.60
2023-05-01T18:33:04.731Z,8.07
2023-05-01T18:35:33.790Z,7.90
2023-05-01T18:38:02.799Z,7.63
2023-05-01T18:40:32.252Z,8.40
2023-05-01T18:43:01.666Z,7.43
2023-05-01T18:45:32.650Z,8.30
2023-05-01T18:48:04.540Z,9.60
2023-05-01T18:50:33.721Z,9.97
2023-05-01T18:53:03.097Z,10.47
2023-05-01T18:55:33.254Z,10.33
2023-05-01T18:58:02.427Z,9.77
2023-05-01T19:00:31.965Z,9.20
2023-05-01T19:03:02.765Z,9.53
2023-05-01T19:05:32.106Z,10.80
2023-05-01T19:08:05.280Z,24.23
2023-05-01T19:10:36.612Z,10.33
2023-05-01T19:13:07.852Z,10.03
2023-05-01T19:15:36.791Z,13.13
2023-05-01T19:18:07.813Z,14.10
2023-05-01T19:20:36.997Z,20.20
2023-05-01T19:23:06.017Z,20.07
2023-05-01T19:25:36.010Z,20.43
2023-05-01T19:28:05.348Z,14.73
2023-05-01T19:30:34.292Z,19.23
2023-05-01T19:33:04.206Z,18.30
2023-05-01T19:35:35.259Z,9.60
2023-05-01T19:38:04.128Z,10.43
2023-05-01T19:40:33.983Z,21.73
2023-05-01T19:43:03.044Z,21.53
2023-05-01T19:45:32.143Z,13.90
2023-05-01T19:48:01.264Z,11.27
2023-05-01T19:50:31.828Z,12.10
2023-05-01T19:53:05.419Z,11.60
2023-05-01T19:55:34.681Z,14.07
2023-05-01T19:58:04.640Z,11.10
2023-05-01T20:00:33.758Z,11.63
2023-05-01T20:03:03.022Z,11.60
2023-05-01T20:05:32.695Z,11.20
2023-05-01T20:08:03.349Z,12.90
2023-05-01T20:10:33.358Z,14.13
2023-05-01T20:13:09.944Z,12.40
2023-05-01T20:15:39.678Z,10.77
2023-05-01T20:18:08.969Z,15.93
2023-05-01T20:20:37.963Z,12.30
2023-05-01T20:23:15.349Z,11.57
2023-05-01T20:25:46.466Z,16.37
2023-05-01T20:28:15.878Z,11.40
2023-05-01T20:30:46.608Z,11.50
2023-05-01T20:33:17.146Z,12.90
2023-05-01T20:35:46.291Z,12.07
2023-05-01T20:38:16.554Z,14.27
2023-05-01T20:40:45.565Z,11.87
2023-05-01T20:43:14.531Z,12.20
2023-05-01T20:45:43.495Z,12.57
2023-05-01T20:48:12.749Z,13.43
2023-05-01T20:50:43.855Z,13.07
2023-05-01T20:53:12.872Z,16.70
2023-05-01T20:55:43.231Z,13.03
2023-05-01T20:58:12.233Z,12.20
2023-05-01T21:00:41.324Z,11.60
2023-05-01T21:03:14.551Z,12.20
2023-05-01T21:05:43.761Z,11.70
2023-05-01T21:08:12.895Z,12.80
2023-05-01T21:10:43.504Z,11.30
2023-05-01T21:13:12.528Z,12.70
2023-05-01T21:15:42.952Z,12.17
2023-05-01T21:18:13.252Z,11.70
2023-05-01T21:20:45.656Z,11.40
2023-05-01T21:23:15.950Z,12.83
2023-05-01T21:25:46.502Z,10.03
2023-05-01T21:28:18.383Z,9.67
2023-05-01T21:30:49.877Z,11.27
2023-05-01T21:33:19.192Z,11.40
2023-05-01T21:35:49.765Z,12.30
2023-05-01T21:38:18.772Z,11.87
2023-05-01T21:40:49.075Z,10.97
2023-05-01T21:43:19.990Z,10.37
2023-05-01T21:45:49.174Z,10.23
2023-05-01T21:48:20.916Z,10.50
2023-05-01T21:50:51.369Z,12.50
2023-05-01T21:53:20.283Z,9.53
2023-05-01T21:55:50.851Z,10.27
2023-05-01T21:58:19.907Z,10.20
2023-05-01T22:00:48.877Z,9.27
2023-05-01T22:03:19.491Z,9.07
2023-05-01T22:05:48.534Z,9.80
2023-05-01T22:08:17.516Z,9.43
2023-05-01T22:10:46.669Z,9.00
2023-05-01T22:13:17.175Z,10.77
2023-05-01T22:15:48.857Z,10.53
2023-05-01T22:18:19.927Z,9.70
2023-05-01T22:20:49.198Z,9.40
2023-05-01T22:23:18.119Z,8.67
2023-05-01T22:25:47.230Z,8.80
2023-05-01T22:28:17.984Z,8.33
2023-05-01T22:30:47.860Z,9.00
2023-05-01T22:33:16.805Z,10.07
2023-05-01T22:35:45.956Z,9.33
2023-05-01T22:38:14.872Z,7.70
2023-05-01T22:40:43.913Z,9.90
2023-05-01T22:43:12.769Z,8.33
2023-05-01T22:45:43.052Z,9.00
2023-05-01T22:48:12.444Z,8.80
2023-05-01T22:50:42.828Z,9.77
2023-05-01T22:53:11.895Z,9.57
2023-05-01T22:55:40.741Z,9.20
2023-05-01T22:58:09.756Z,10.03
2023-05-01T23:00:38.664Z,9.40
2023-05-01T23:03:09.418Z,10.00
2023-05-01T23:05:38.571Z,9.50
2023-05-01T23:08:08.031Z,9.97
2023-05-01T23:10:41.197Z,10.80
2023-05-01T23:13:17.346Z,9.17
2023-05-01T23:15:50.038Z,9.20
2023-05-01T23:18:25.422Z,9.67
2023-05-01T23:20:55.957Z,8.40
2023-05-01T23:23:30.568Z,8.90
2023-05-01T23:25:59.984Z,9.40
2023-05-01T23:28:29.592Z,10.03
2023-05-01T23:31:00.112Z,9.40
2023-05-01T23:33:34.816Z,9.23
2023-05-01T23:36:04.175Z,8.67
2023-05-01T23:38:33.241Z,8.83
2023-05-01T23:41:02.288Z,10.17
2023-05-01T23:43:31.214Z,9.47
2023-05-01T23:46:00.416Z,9.77
2023-05-01T23:48:30.911Z,8.73
2023-05-01T23:51:00.180Z,9.10
2023-05-01T23:53:29.276Z,8.50
2023-05-01T23:55:58.456Z,9.43
2023-05-01T23:58:27.609Z,9.57
